KLOR/LOR METAR and TAF weather

Enter ICAO airport designator
Station Type Date Time Source
KLOR METAR 2020/01/22 20:58 UTC NOAA

KLOR 222058Z AUTO 00000KT 10SM SCT250 12/M01 A3022 RMK AO2 SLPNO T01241014


Station Type Date Time Source
KLOR Decoded METAR 2020/01/22 20:58 UTC NOAA

Fort Rucker, Lowe Army Heliport, AL, United States (KLOR) 31-21-32N 085-44-54W 93M
Jan 22, 2020 - 03:58 PM EST / 2020.01.22 2058 UTC
Wind: Calm:0
Visibility: 10 mile(s):0
Sky conditions: partly cloudy
Temperature: 54.3 F (12.4 C)
Dew Point: 29.5 F (-1.4 C)
Relative Humidity: 38%
Pressure (altimeter): 30.22 in. Hg (1023 hPa)
ob: KLOR 222058Z AUTO 00000KT 10SM SCT250 12/M01 A3022 RMK AO2 SLPNO T01241014
cycle: 21

Station Type Date Time Source
KLOR TAF UTC NOAA

Error!

Example: see airport list